Weather reports worldwide

Advertisment
Monte S. Angelo, Italy (16258): temperature & dewpoint: 16.07.2019 21:00:00 - 22.07.2019 21:00:00 (CEST)Monte S. Angelo, Italy (16258): wind speed: 16.07.2019 21:00:00 - 22.07.2019 21:00:00 (CEST)Monte S. Angelo, Italy (16258): wind direction: 16.07.2019 21:00:00 - 22.07.2019 21:00:00 (CEST)Monte S. Angelo, Italy (16258): visibility: 16.07.2019 21:00:00 - 22.07.2019 21:00:00 (CEST)
Date & Time tt [°C] td [°C] ff [km/h] ff [kn] dd vv [km]
22.07.2019 21:00:00 21,2 12,9 18 10 NNW 10
22.07.2019 20:00:00 21,6 14,5 15 8 NW 12
22.07.2019 19:00:00 22,6 15,2 18 10 NW 12
22.07.2019 18:00:00 23,0 14,8 15 8 NW 15
22.07.2019 17:00:00 23,8 12,8 18 10 WNW 15
22.07.2019 16:00:00 24,4 12,4 16 9 NW 15
22.07.2019 15:00:00 25,0 10,5 15 8 NNW 15
22.07.2019 14:00:00 24,8 9,9 16 9 NW 15
22.07.2019 13:00:00 24,2 8,6 21 11 NW 15
22.07.2019 12:00:00 24,0 8,0 18 10 NW 15
22.07.2019 11:00:00 24,6 6,8 13 7 NNW 20
22.07.2019 10:00:00 23,8 2,6 15 8 N 20
22.07.2019 09:00:00 22,4 7,0 15 8 NW 20
22.07.2019 08:00:00 22,0 7,1 21 11 NW 20
22.07.2019 07:00:00 21,0 8,6 24 13 NW 20
22.07.2019 06:00:00 20,2 7,9 16 9 NW 20
22.07.2019 05:00:00 21,4 6,5 13 7 NW 20
22.07.2019 04:00:00 22,0 4,1 11 6 NW 20
22.07.2019 03:00:00 21,4 5,7 13 7 NW 20
22.07.2019 02:00:00 21,4 5,3 13 7 NW 20
22.07.2019 01:00:00 22,0 4,1 11 6 NW 20
22.07.2019 00:00:00 22,0 4,1 9 5 NW 20
21.07.2019 23:00:00 22,0 4,1 8 4 NW 20
21.07.2019 22:00:00 22,0 4,1 11 6 NNW 20
21.07.2019 21:00:00 22,8 3,9 9 5 NNW 20
21.07.2019 20:00:00 23,4 5,8 13 7 NNW 20
21.07.2019 19:00:00 24,4 5,2 13 7 NNW 20
21.07.2019 18:00:00 26,0 5,6 11 6 NNW 20
21.07.2019 17:00:00 26,2 6,8 8 4 SW 20
21.07.2019 16:00:00 26,4 7,0 8 4 NNW 20
21.07.2019 15:00:00 27,0 7,5 4 2 WNW 20
21.07.2019 14:00:00 26,2 7,3 5 3 E 20
21.07.2019 13:00:00 25,6 6,8 4 2 S 20
21.07.2019 12:00:00 25,0 6,7 5 3 NE 20
21.07.2019 11:00:00 24,0 6,8 8 4 W 20
21.07.2019 10:00:00 22,6 6,0 8 4 N 20
21.07.2019 09:00:00 22,0 4,6 8 4 N 20
21.07.2019 08:00:00 21,2 4,3 8 4 N 20
21.07.2019 07:00:00 20,2 3,4 9 5 NNW 20
21.07.2019 06:00:00 20,2 3,9 5 3 NW 20
21.07.2019 05:00:00 20,6 3,8 5 3 WNW 20
21.07.2019 04:00:00 20,6 3,4 8 4 WNW 20
21.07.2019 03:00:00 20,2 4,7 9 5 WNW 20
21.07.2019 02:00:00 20,2 5,1 9 5 WNW 20
21.07.2019 01:00:00 20,8 4,4 9 5 WNW 20
21.07.2019 00:00:00 21,0 4,6 9 5 WNW 20
20.07.2019 23:00:00 21,0 6,2 8 4 WNW 20
20.07.2019 22:00:00 20,8 7,8 0 0 N 20
20.07.2019 21:00:00 21,0 6,5 2 1 NE 20
20.07.2019 20:00:00 22,2 7,2 4 2 NE 25
20.07.2019 19:00:00 22,8 7,4 2 1 W 25
20.07.2019 18:00:00 24,0 7,6 2 1 ENE 25
20.07.2019 17:00:00 22,8 9,6 4 2 ESE 25
20.07.2019 16:00:00 22,6 8,7 8 4 SSE 25
20.07.2019 15:00:00 22,6 8,3 9 5 S 25
20.07.2019 14:00:00 22,2 8,0 9 5 W 25
20.07.2019 13:00:00 22,2 10,4 11 6 SSE 25
20.07.2019 12:00:00 21,6 11,1 8 4 N 25
20.07.2019 11:00:00 21,4 10,6 5 3 SSE 25
20.07.2019 10:00:00 22,0 7,4 2 1 SSE 25
20.07.2019 09:00:00 21,4 3,1 4 2 NNE 25
20.07.2019 08:00:00 20,0 3,7 4 2 NNE 20
20.07.2019 07:00:00 19,0 2,0 4 2 NE 20
20.07.2019 06:00:00 19,0 1,1 4 2 NE 15
20.07.2019 05:00:00 19,0 2,4 4 2 NE 15
20.07.2019 04:00:00 19,0 1,1 5 3 N 12
20.07.2019 03:00:00 19,0 0,1 4 2 N 12
20.07.2019 02:00:00 19,4 0,4 4 2 ENE 12
20.07.2019 01:00:00 19,6 0,6 8 4 NNE 15
20.07.2019 00:00:00 19,6 0,6 8 4 N 15
19.07.2019 23:00:00 19,6 2,5 4 2 NNW 15
19.07.2019 22:00:00 19,4 2,7 11 6 N 15
19.07.2019 21:00:00 20,0 6,0 13 7 N 15
19.07.2019 20:00:00 20,2 11,2 9 5 NNW 20
19.07.2019 19:00:00 21,6 11,9 5 3 N 20
19.07.2019 18:00:00 22,0 12,6 4 2 SSW 20
19.07.2019 17:00:00 22,4 15,0 2 1 SE 20
19.07.2019 16:00:00 21,4 15,0 4 2 SSE 15
19.07.2019 15:00:00 21,0 16,4 4 2 S 15
19.07.2019 14:00:00 19,6 15,9 4 2 S 15
19.07.2019 13:00:00 20,0 17,8 8 4 S 15
19.07.2019 12:00:00 20,4 13,6 8 4 SSE 15
19.07.2019 11:00:00 22,8 9,6 2 1 NE 20
19.07.2019 10:00:00 - - - - - -
19.07.2019 09:00:00 - - - - - -
19.07.2019 08:00:00 19,4 2,3 9 5 NNW 15
19.07.2019 07:00:00 18,6 2,4 9 5 NNW 15
19.07.2019 06:00:00 18,0 2,3 8 4 NW 15
19.07.2019 05:00:00 18,2 1,3 13 7 WNW 15
19.07.2019 04:00:00 18,8 -0,1 8 4 NW 15
19.07.2019 03:00:00 19,0 4,4 8 4 SW 15
19.07.2019 02:00:00 19,2 1,2 5 3 S 15
19.07.2019 01:00:00 18,8 0,9 8 4 S 15
19.07.2019 00:00:00 19,0 0,6 5 3 SSE 15
18.07.2019 23:00:00 18,8 -0,1 8 4 SSE 15
18.07.2019 22:00:00 19,0 1,1 9 5 SE 15
18.07.2019 21:00:00 19,6 0,1 8 4 E 15
18.07.2019 20:00:00 20,4 -0,3 5 3 ESE 25
18.07.2019 19:00:00 21,0 2,8 5 3 ESE 25
18.07.2019 18:00:00 21,8 2,0 9 5 S 25
18.07.2019 17:00:00 22,2 1,3 8 4 SSE 25
18.07.2019 16:00:00 22,0 -0,1 9 5 S 25
18.07.2019 15:00:00 21,8 0,9 9 5 S 25
18.07.2019 14:00:00 21,6 0,8 9 5 S 25
18.07.2019 13:00:00 21,2 0,4 11 6 S 25
18.07.2019 12:00:00 20,6 1,0 9 5 S 25
18.07.2019 11:00:00 20,4 1,3 8 4 SSE 25
18.07.2019 10:00:00 20,0 1,0 8 4 S 25
18.07.2019 09:00:00 19,4 0,4 4 2 SSE 20
18.07.2019 08:00:00 18,6 0,2 4 2 SE 20
18.07.2019 07:00:00 17,8 -0,5 9 5 NE 20
18.07.2019 06:00:00 17,4 -1,3 9 5 NNE 20
18.07.2019 05:00:00 17,2 -1,5 9 5 NNE 10
18.07.2019 04:00:00 17,0 -4,3 5 3 NNE 10
18.07.2019 03:00:00 17,0 -1,6 5 3 NE 10
18.07.2019 02:00:00 17,0 -1,6 8 4 NE 10
18.07.2019 01:00:00 17,0 -0,7 5 3 N 10
18.07.2019 00:00:00 17,0 3,3 4 2 SSW 10
17.07.2019 23:00:00 17,0 1,4 0 0 N 10
17.07.2019 22:00:00 17,0 -1,6 0 0 N 10
17.07.2019 21:00:00 16,6 3,0 5 3 WNW 10
17.07.2019 20:00:00 17,4 3,7 11 6 NW 20
17.07.2019 19:00:00 18,2 4,0 9 5 NW 20
17.07.2019 18:00:00 19,4 4,4 8 4 NNW 20
17.07.2019 17:00:00 19,6 4,9 9 5 NNW 20
17.07.2019 16:00:00 20,0 7,1 9 5 NNW 20
17.07.2019 15:00:00 19,0 5,1 11 6 NW 20
17.07.2019 14:00:00 19,2 4,6 15 8 NW 20
17.07.2019 13:00:00 18,6 4,8 13 7 WNW 20
17.07.2019 12:00:00 18,2 8,2 15 8 NW 20
17.07.2019 11:00:00 18,4 6,9 13 7 NNE 25
17.07.2019 10:00:00 17,8 7,3 5 3 N 25
17.07.2019 09:00:00 16,6 9,3 11 6 N 25
17.07.2019 08:00:00 15,6 8,8 11 6 N 25
17.07.2019 07:00:00 15,0 12,7 11 6 N 20
17.07.2019 06:00:00 15,0 12,5 11 6 NNW 20
17.07.2019 05:00:00 14,8 13,2 9 5 NW 20
17.07.2019 04:00:00 15,0 14,2 8 4 NW 20
17.07.2019 03:00:00 15,2 14,6 13 7 NNW 20
17.07.2019 02:00:00 15,4 14,8 15 8 NW 20
17.07.2019 01:00:00 15,2 12,7 15 8 NW 20
17.07.2019 00:00:00 15,0 12,1 22 12 NNW 20
16.07.2019 23:00:00 15,4 12,7 22 12 NNW 20
16.07.2019 22:00:00 15,6 13,6 24 13 NNW 20
16.07.2019 21:00:00 15,6 13,6 28 15 NNW 20

tt = temperature
td = dewpoint
ff = wind speed
dd = wind direction
vv = visibility

Next stations